Redford, Texas
Current Conditions -  °F | °C
As of 2:35 AM on Friday 24 Oct 2014 (Local Time) from KPRS Reporting Station
Clear Clear  
Wind Chill: 68°   Ceiling: Unl
Heat Index: 68°   Visibility: 10mi
Dew Point: 59°   Wind: 9mph
Humidity: 73%   Direction: 360°N
Pressure: 30.15"   Gusts: 16mph
Location:  29.45°N, 104.19°W
Report Text: KPRS 240735Z AUTO 36008G14KT 10SM CLR 20/15 A3015 RMK AO2 T01980148
Loading
Personal Weather Stations






























Interactive Weather Map
Tropical Storm Tracking
New forecast layout! Learn more

10-Day Weather Forecast

Advertisements
Track Severe Weather on mobile